OINR  Ramsar Airport

Add Bookmark

Iran

Status IATA
Operational RZR
Latitude Longitude
36° 54' 35" N 50° 40' 46" E
36.909901 50.679600
Local (DST + 5) UTC (GMT + 4)
Nov 26, 2014 12:08 Nov 26, 2014 08:38
Sunrise-Sunset Local UTC
Begin Civil Twilight 06:27 02:57
Sunrise 06:55 03:25
Sunset 04:53 13:23
End Civil Twilight 05:21 13:51

Current Weather

METAR Observed VFR
OINR 260800Z 30004KT 9999 FEW022CB SCT027 BKN090 12/09 Q1021 Wed, Nov 26, 2014 @ 08:00 UTC
(38 Minutes ago)
Visual Flight Rules
Wind Visibility Clouds Conditions
300° at 4 knots (7 kph) 10 km or more
  • Few at 2,200' AGL
  • Scattered at 2,700' AGL
  • Broken at 9,000' AGL
  • No significant weather
Temperatures Readings Precipitation
Current Temp 12°C (54°F)
Dewpoint 9°C (48°F)
Humidity 82%
Altimeter 30.15"Hg
Sea Level Pressure 1021mb
None Recorded

Additional weather within a 92.6km radius of OINR

Map ICAO Location
OINN 75km E (111°)

24 Hour Weather History

Loading
-

24 Hour Weather Graphs

Loading
-

CheckWX.com is intended as a tool to help pilots better visualize weather data. It is not intended as a substitute for an official weather briefing obtained from a Flight Service Station. CheckWX.com does not meet the FAA requirements for an official pre-flight weather briefing. Therefore, it's important that pilots still call and obtain an official FSS pre-flight weather briefing.